Time;durP1;ratioP1;P1;durP2;ratioP2;P2;SDS_P1;SDS_P2;PMS_P1;PMS_P2;Temp;Humidity;BMP_temperature;BMP_pressure;BME280_temperature;BME280_humidity;BME280_pressure;Samples;Min_cycle;Max_cycle;Signal;HPM_P1;HPM_P2
2022/10/05 00:01:47;;;;;;;;;;;;;;;21.82;62.30;101765.19;7406481;19;1421;-65
2022/10/05 00:04:17;;;;;;;;;;;;;;;21.88;62.40;101777.28;7406726;19;1838;-65
2022/10/05 00:06:50;;;;;;;;;;;;;;;21.85;62.41;101776.53;7407639;19;1209;-63
2022/10/05 00:09:19;;;;;;;;;;;;;;;21.86;62.41;101785.47;7408830;19;1204;-63
2022/10/05 00:11:48;;;;;;;;;;;;;;;21.90;62.22;101795.00;7407537;19;1678;-63
2022/10/05 00:14:18;;;;;;;;;;;;;;;21.87;62.42;101791.72;7404999;19;1582;-62
2022/10/05 00:16:46;;;;;;;;;;;;;;;21.90;62.44;101810.31;7407495;19;1698;-65
2022/10/05 00:19:22;;;;;;;;;;;;;;;21.82;62.28;101801.03;7406871;19;1334;-65
2022/10/05 00:21:53;;;;;;;;;;;;;;;21.85;62.13;101789.16;7407438;19;1244;-65
2022/10/05 00:24:22;;;;;;;;;;;;;;;21.85;62.29;101794.56;7405585;19;1850;-61
2022/10/05 00:26:50;;;;;;;;;;;;;;;21.84;62.06;101791.00;7408065;19;1323;-63
2022/10/05 00:29:22;;;;;;;;;;;;;;;21.85;62.21;101797.25;7405171;19;1488;-65
2022/10/05 00:31:51;;;;;;;;;;;;;;;21.84;62.35;101803.59;7404239;19;1426;-65
2022/10/05 00:34:19;;;;;;;;;;;;;;;21.85;62.52;101794.56;7407411;19;1316;-65
2022/10/05 00:36:47;;;;;;;;;;;;;;;21.84;62.23;101804.47;7405166;19;1485;-65
2022/10/05 00:39:19;;;;;;;;;;;;;;;21.84;62.31;101799.09;7407028;19;1338;-63
2022/10/05 00:41:56;;;;;;;;;;;;;;;21.89;61.93;101801.38;7406160;19;1316;-65
2022/10/05 00:44:35;;;;;;;;;;;;;;;21.85;62.00;101818.78;7404926;19;1861;-63
2022/10/05 00:47:10;;;;;;;;;;;;;;;21.81;62.15;101807.41;7404578;19;1359;-65
2022/10/05 00:49:51;;;;;;;;;;;;;;;21.83;61.95;101823.44;7406010;19;1300;-65
2022/10/05 00:52:25;;;;;;;;;;;;;;;21.84;62.24;101820.63;7406444;19;1442;-63
2022/10/05 00:55:01;;;;;;;;;;;;;;;21.84;61.87;101841.28;7404737;19;1449;-65
2022/10/05 00:57:39;;;;;;;;;;;;;;;21.81;62.16;101841.56;7405629;19;1507;-65
2022/10/05 01:00:08;;;;;;;;;;;;;;;21.84;62.01;101852.06;7406802;19;1367;-63
2022/10/05 01:02:43;;;;;;;;;;;;;;;21.78;62.09;101841.81;7403644;19;1757;-63
2022/10/05 01:05:14;;;;;;;;;;;;;;;21.81;61.82;101828.09;7404406;19;1899;-65
2022/10/05 01:07:48;;;;;;;;;;;;;;;21.81;61.83;101838.88;7405188;19;1431;-65
2022/10/05 01:10:25;;;;;;;;;;;;;;;21.81;61.81;101831.66;7404040;19;1575;-65
2022/10/05 01:13:00;;;;;;;;;;;;;;;21.81;61.84;101830.81;7405802;19;1540;-65
2022/10/05 01:15:33;;;;;;;;;;;;;;;21.78;61.80;101842.66;7405182;19;1560;-65
2022/10/05 01:18:04;;;;;;;;;;;;;;;21.77;61.96;101832.88;7404500;19;1660;-65
2022/10/05 01:20:38;;;;;;;;;;;;;;;21.78;61.79;101850.72;7405311;19;1517;-65
2022/10/05 01:23:24;;;;;;;;;;;;;;;21.79;61.89;101844.38;7403671;19;1690;-65
2022/10/05 01:25:59;;;;;;;;;;;;;;;21.78;62.04;101842.66;7400236;19;1858;-65
2022/10/05 01:28:33;;;;;;;;;;;;;;;21.78;61.68;101844.50;7403567;19;1465;-62
2022/10/05 01:31:06;;;;;;;;;;;;;;;21.79;61.70;101854.31;7404253;19;1765;-64
2022/10/05 01:33:38;;;;;;;;;;;;;;;21.83;61.77;101861.16;7405364;19;1431;-65
2022/10/05 01:36:12;;;;;;;;;;;;;;;21.79;61.73;101855.16;7404468;19;1435;-65
2022/10/05 01:38:46;;;;;;;;;;;;;;;21.78;61.59;101857.97;7405751;19;1295;-63
2022/10/05 01:41:24;;;;;;;;;;;;;;;21.77;61.63;101867.03;7404574;19;1301;-62
2022/10/05 01:43:57;;;;;;;;;;;;;;;21.77;61.65;101857.13;7404298;19;1437;-63
2022/10/05 01:46:30;;;;;;;;;;;;;;;21.77;61.82;101857.13;7403370;19;1848;-63
2022/10/05 01:49:19;;;;;;;;;;;;;;;21.74;61.74;101848.44;7405054;19;1414;-63
2022/10/05 01:51:52;;;;;;;;;;;;;;;21.76;61.79;101855.38;7403536;19;1641;-65
2022/10/05 01:54:26;;;;;;;;;;;;;;;21.74;61.70;101846.59;7402516;19;1514;-63
2022/10/05 01:57:02;;;;;;;;;;;;;;;21.72;61.74;101853.94;7401968;19;1540;-65
2022/10/05 01:59:38;;;;;;;;;;;;;;;21.78;61.67;101864.19;7402855;19;1643;-64
2022/10/05 02:02:09;;;;;;;;;;;;;;;21.75;61.45;101845.63;7393727;19;1491;-65
2022/10/05 02:04:41;;;;;;;;;;;;;;;21.73;61.53;101855.66;7402840;19;1850;-66
2022/10/05 02:07:14;;;;;;;;;;;;;;;21.71;61.77;101857.63;7400955;19;1442;-65
2022/10/05 02:09:45;;;;;;;;;;;;;;;21.69;61.51;101854.22;7401452;19;1304;-66
2022/10/05 02:12:16;;;;;;;;;;;;;;;21.72;61.50;101869.25;7402663;19;1376;-66
2022/10/05 02:14:50;;;;;;;;;;;;;;;21.74;61.49;101876.19;7401177;19;1327;-66
2022/10/05 02:17:19;;;;;;;;;;;;;;;21.71;61.59;101873.78;7403027;19;1577;-66
2022/10/05 02:19:50;;;;;;;;;;;;;;;21.71;61.63;101873.78;7403812;19;1204;-66
2022/10/05 02:22:21;;;;;;;;;;;;;;;21.71;61.37;101892.63;7401740;19;1564;-66
2022/10/05 02:24:52;;;;;;;;;;;;;;;21.71;61.43;101873.78;7400456;19;1857;-64
2022/10/05 02:27:24;;;;;;;;;;;;;;;21.71;61.24;101883.69;7402028;19;1355;-66
2022/10/05 02:29:58;;;;;;;;;;;;;;;21.73;61.38;101885.28;7402033;19;1314;-66
2022/10/05 02:32:29;;;;;;;;;;;;;;;21.72;61.30;101891.63;7402420;19;1408;-66
2022/10/05 02:35:01;;;;;;;;;;;;;;;21.75;61.42;101902.16;7402514;19;1450;-66
2022/10/05 02:37:34;;;;;;;;;;;;;;;21.72;61.36;101896.16;7401683;19;1473;-66
2022/10/05 02:40:12;;;;;;;;;;;;;;;21.69;61.19;101899.97;7401647;19;1667;-66
2022/10/05 02:42:47;;;;;;;;;;;;;;;21.67;61.23;101896.56;7402602;19;1203;-66
2022/10/05 02:45:25;;;;;;;;;;;;;;;21.68;61.18;101917.09;7400460;19;1872;-66
2022/10/05 02:47:59;;;;;;;;;;;;;;;21.69;61.50;101916.13;7401529;19;1757;-65
2022/10/05 02:50:31;;;;;;;;;;;;;;;21.68;61.24;101909.00;7401858;19;1402;-66
2022/10/05 02:53:05;;;;;;;;;;;;;;;21.68;61.31;101918.94;7401776;19;1287;-65
2022/10/05 02:55:39;;;;;;;;;;;;;;;21.64;61.07;101916.47;7401838;19;1869;-65
2022/10/05 02:58:10;;;;;;;;;;;;;;;21.67;61.13;101914.56;7401558;19;1300;-65
2022/10/05 03:00:44;;;;;;;;;;;;;;;21.67;61.05;101914.56;7402193;19;1251;-65
2022/10/05 03:03:17;;;;;;;;;;;;;;;21.64;61.00;101904.88;7399077;19;1441;-65
2022/10/05 03:05:48;;;;;;;;;;;;;;;21.62;61.18;101906.81;7399871;19;1864;-65
2022/10/05 03:08:18;;;;;;;;;;;;;;;21.65;61.03;101907.44;7401915;19;1399;-65
2022/10/05 03:10:51;;;;;;;;;;;;;;;21.63;60.99;101930.09;7409956;19;1543;-65
2022/10/05 03:13:25;;;;;;;;;;;;;;;21.62;60.83;101933.75;7410097;19;1288;-65
2022/10/05 03:16:02;;;;;;;;;;;;;;;21.65;61.05;101934.34;7408674;19;1208;-66
2022/10/05 03:18:40;;;;;;;;;;;;;;;21.62;60.93;101944.50;7408141;19;1462;-66
2022/10/05 03:21:17;;;;;;;;;;;;;;;21.65;61.08;101955.91;7409143;19;1242;-66
2022/10/05 03:23:50;;;;;;;;;;;;;;;21.64;60.77;101967.63;7408630;19;1304;-66
2022/10/05 03:26:25;;;;;;;;;;;;;;;21.66;60.83;101956.75;7407786;19;1861;-66
2022/10/05 03:28:58;;;;;;;;;;;;;;;21.67;60.67;101963.84;7407597;19;1319;-65
2022/10/05 03:31:32;;;;;;;;;;;;;;;21.63;60.63;101957.84;7405275;19;1553;-66
2022/10/05 03:34:02;;;;;;;;;;;;;;;21.61;60.77;101967.91;7409661;19;1282;-66
2022/10/05 03:36:35;;;;;;;;;;;;;;;21.64;60.85;101966.78;7408478;19;1341;-66
2022/10/05 03:39:09;;;;;;;;;;;;;;;21.62;60.73;101972.28;7406838;19;1455;-66
2022/10/05 03:41:42;;;;;;;;;;;;;;;21.61;60.64;101975.13;7408274;19;1301;-66
2022/10/05 03:44:16;;;;;;;;;;;;;;;21.60;60.57;101965.31;7407913;19;1216;-66
2022/10/05 03:46:54;;;;;;;;;;;;;;;21.64;60.86;101970.31;7406069;19;1881;-66
2022/10/05 03:49:26;;;;;;;;;;;;;;;21.63;60.58;101984.78;7407925;19;1196;-66
2022/10/05 03:51:57;;;;;;;;;;;;;;;21.58;60.65;101978.03;7406757;19;1615;-66
2022/10/05 03:54:28;;;;;;;;;;;;;;;21.60;60.63;101974.25;7407723;19;1440;-66
2022/10/05 03:56:58;;;;;;;;;;;;;;;21.61;60.91;101980.50;7407059;19;1390;-66
2022/10/05 03:59:28;;;;;;;;;;;;;;;21.63;60.83;101990.16;7406609;19;1494;-66
2022/10/05 04:02:00;;;;;;;;;;;;;;;21.58;60.37;101991.50;7404569;19;1414;-66
2022/10/05 04:04:33;;;;;;;;;;;;;;;21.60;60.81;101994.94;7408156;19;1324;-66
2022/10/05 04:07:02;;;;;;;;;;;;;;;21.62;60.62;102009.13;7403980;19;1857;-66
2022/10/05 04:09:33;;;;;;;;;;;;;;;21.60;60.67;102001.16;7406964;19;1523;-66
2022/10/05 04:12:04;;;;;;;;;;;;;;;21.57;60.55;101995.19;7406341;19;1379;-64
2022/10/05 04:14:36;;;;;;;;;;;;;;;21.63;60.82;102024.31;7406794;19;1323;-65
2022/10/05 04:17:10;;;;;;;;;;;;;;;21.66;60.78;102015.97;7406385;19;1290;-66
2022/10/05 04:19:40;;;;;;;;;;;;;;;21.69;60.67;102023.81;7405980;19;1303;-63
2022/10/05 04:22:14;;;;;;;;;;;;;;;21.69;60.56;102028.34;7406666;19;1635;-63
2022/10/05 04:24:45;;;;;;;;;;;;;;;21.67;60.63;102023.09;7406216;19;1718;-63
2022/10/05 04:27:15;;;;;;;;;;;;;;;21.72;61.08;102031.63;7403616;19;1869;-63
2022/10/05 04:29:47;;;;;;;;;;;;;;;21.68;60.78;102046.31;7401357;19;1397;-62
2022/10/05 04:32:27;;;;;;;;;;;;;;;21.66;59.51;102045.59;7405903;19;1281;-64
2022/10/05 04:35:01;;;;;;;;;;;;;;;21.70;60.42;102057.81;7405507;19;1189;-63
2022/10/05 04:37:34;;;;;;;;;;;;;;;21.67;60.52;102049.16;7405835;19;1402;-68
2022/10/05 04:40:10;;;;;;;;;;;;;;;21.74;60.97;102056.59;7405987;19;1462;-64
2022/10/05 04:42:41;;;;;;;;;;;;;;;21.73;61.01;102065.66;7405503;19;1431;-63
2022/10/05 04:45:18;;;;;;;;;;;;;;;21.69;61.23;102077.66;7407240;19;1851;-63
2022/10/05 04:48:01;;;;;;;;;;;;;;;21.73;61.50;102067.50;7406711;19;1501;-69
2022/10/05 04:50:37;;;;;;;;;;;;;;;21.75;61.68;102055.63;7398791;19;1430;-68
2022/10/05 04:53:10;;;;;;;;;;;;;;;21.88;61.82;102062.72;7404726;19;1275;-68
2022/10/05 04:55:42;;;;;;;;;;;;;;;21.87;62.07;102063.72;7404233;19;1567;-63
2022/10/05 04:58:16;;;;;;;;;;;;;;;21.95;62.01;102061.25;7404090;19;1271;-65
2022/10/05 05:00:49;;;;;;;;;;;;;;;22.10;61.78;102076.16;7401062;19;1775;-67
2022/10/05 05:03:36;;;;;;;;;;;;;;;22.09;62.14;102089.78;7402825;19;1378;-66
2022/10/05 05:06:12;;;;;;;;;;;;;;;22.04;62.38;102076.66;7402578;19;1852;-69
2022/10/05 05:08:49;;;;;;;;;;;;;;;22.10;62.47;102076.16;7394642;19;1419;-66
2022/10/05 05:11:30;;;;;;;;;;;;;;;23.12;60.46;102076.78;7406695;19;1267;-65
2022/10/05 05:14:08;;;;;;;;;;;;;;;22.73;61.15;102062.94;7400205;19;1635;-65
2022/10/05 05:16:39;;;;;;;;;;;;;;;22.28;62.25;102098.09;7404055;19;1707;-68
2022/10/05 05:19:28;;;;;;;;;;;;;;;22.18;62.64;102081.81;7400547;19;1313;-70
2022/10/05 05:22:02;;;;;;;;;;;;;;;22.12;62.62;102089.50;7398168;19;1297;-71
2022/10/05 05:24:38;;;;;;;;;;;;;;;22.15;62.55;102095.50;7400371;19;1331;-68
2022/10/05 05:27:27;;;;;;;;;;;;;;;22.13;58.22;102100.16;7397054;19;1865;-69
2022/10/05 05:30:00;;;;;;;;;;;;;;;22.19;57.83;102088.91;7403112;19;1375;-68
2022/10/05 05:32:34;;;;;;;;;;;;;;;22.22;56.44;102094.06;7402123;19;1383;-69
2022/10/05 05:35:14;;;;;;;;;;;;;;;22.23;59.10;102095.75;7400140;19;1774;-69
2022/10/05 05:37:51;;;;;;;;;;;;;;;22.20;58.54;102096.00;7401293;19;1643;-68
2022/10/05 05:40:25;;;;;;;;;;;;;;;22.16;58.72;102108.03;7402806;19;1670;-67
2022/10/05 05:42:57;;;;;;;;;;;;;;;22.11;59.84;102099.44;7401446;19;1289;-67
2022/10/05 05:45:31;;;;;;;;;;;;;;;22.31;58.55;102097.84;7402773;19;1627;-74
2022/10/05 05:48:02;;;;;;;;;;;;;;;22.38;58.69;102106.28;7402571;19;1487;-75
2022/10/05 05:50:41;;;;;;;;;;;;;;;22.33;59.21;102103.13;7402036;19;1371;-72
2022/10/05 05:53:17;;;;;;;;;;;;;;;22.41;59.19;102106.91;7402707;19;1648;-71
2022/10/05 05:55:48;;;;;;;;;;;;;;;22.45;59.38;102107.50;7400915;19;1479;-69
2022/10/05 05:58:21;;;;;;;;;;;;;;;22.55;59.06;102115.69;7402646;19;1438;-68
2022/10/05 06:00:52;;;;;;;;;;;;;;;22.51;58.79;102114.25;7400573;19;1438;-78
2022/10/05 06:03:24;;;;;;;;;;;;;;;22.51;59.48;102119.63;7399892;19;1577;-71
2022/10/05 06:05:55;;;;;;;;;;;;;;;22.66;59.97;102128.28;7401106;19;1849;-75
2022/10/05 06:08:29;;;;;;;;;;;;;;;22.70;60.46;102113.56;7402444;19;1352;-70
2022/10/05 06:11:00;;;;;;;;;;;;;;;22.67;60.80;102119.22;7402073;19;1198;-75
2022/10/05 06:13:31;;;;;;;;;;;;;;;22.71;60.93;102134.16;7403055;19;1407;-72
2022/10/05 06:16:03;;;;;;;;;;;;;;;22.73;61.22;102121.41;7402470;19;1397;-73
2022/10/05 06:18:34;;;;;;;;;;;;;;;22.74;61.74;102124.00;7403113;19;1188;-71
2022/10/05 06:21:04;;;;;;;;;;;;;;;22.84;62.10;102122.22;7402173;19;1325;-73
2022/10/05 06:23:42;;;;;;;;;;;;;;;22.89;62.61;102135.31;7401979;19;1516;-74
2022/10/05 06:26:18;;;;;;;;;;;;;;;22.80;62.32;102136.06;7400469;19;1822;-71
2022/10/05 06:28:49;;;;;;;;;;;;;;;22.78;62.77;102149.72;7401035;19;1285;-71
2022/10/05 06:31:25;;;;;;;;;;;;;;;22.86;62.58;102146.38;7401898;19;1337;-74
2022/10/05 06:33:55;;;;;;;;;;;;;;;22.86;63.23;102162.56;7401474;19;1371;-72
2022/10/05 06:36:32;;;;;;;;;;;;;;;22.87;64.12;102158.88;7401273;19;1341;-71
2022/10/05 06:39:17;;;;;;;;;;;;;;;22.80;61.33;102158.53;7401363;19;1313;-75
2022/10/05 06:41:50;;;;;;;;;;;;;;;21.85;52.49;102168.84;7401622;19;1315;-72
2022/10/05 06:44:24;;;;;;;;;;;;;;;21.56;60.17;102181.88;7407904;19;1481;-71
2022/10/05 06:46:58;;;;;;;;;;;;;;;22.05;58.62;102178.06;7405202;19;1857;-75
2022/10/05 06:49:31;;;;;;;;;;;;;;;22.30;58.89;102176.13;7408461;19;1376;-71
2022/10/05 06:52:04;;;;;;;;;;;;;;;22.47;58.61;102178.31;7408957;19;1407;-76
2022/10/05 06:54:43;;;;;;;;;;;;;;;22.65;58.74;102184.06;7411921;19;1532;-77
2022/10/05 06:57:17;;;;;;;;;;;;;;;22.71;59.41;102180.84;7411851;19;940;-74
2022/10/05 06:59:51;;;;;;;;;;;;;;;22.72;59.69;102176.31;7410857;19;1411;-73
2022/10/05 07:02:25;;;;;;;;;;;;;;;22.71;59.99;102186.25;7406782;19;1695;-74
2022/10/05 07:05:05;;;;;;;;;;;;;;;22.76;60.38;102175.97;7408986;19;1664;-73
2022/10/05 07:07:39;;;;;;;;;;;;;;;22.80;60.71;102174.72;7407677;19;1853;-76
2022/10/05 07:10:18;;;;;;;;;;;;;;;22.76;60.79;102173.25;7409531;19;1692;-76
2022/10/05 07:12:52;;;;;;;;;;;;;;;22.77;60.04;102179.50;7409948;19;1541;-76
2022/10/05 07:15:35;;;;;;;;;;;;;;;22.74;59.54;102179.75;7410020;19;1671;-73
2022/10/05 07:18:12;;;;;;;;;;;;;;;22.76;59.15;102189.44;7410539;19;1341;-75
2022/10/05 07:20:46;;;;;;;;;;;;;;;22.70;59.09;102152.19;7409649;19;1433;-78
2022/10/05 07:23:26;;;;;;;;;;;;;;;22.68;59.07;102175.72;7409720;19;1521;-69
2022/10/05 07:26:03;;;;;;;;;;;;;;;22.78;59.03;102165.03;7409036;19;1489;-75
2022/10/05 07:28:34;;;;;;;;;;;;;;;22.76;59.19;102172.38;7408703;19;1418;-74
2022/10/05 07:31:06;;;;;;;;;;;;;;;22.75;59.36;102176.06;7409482;19;1768;-75
2022/10/05 07:33:41;;;;;;;;;;;;;;;22.75;59.65;102176.06;7409016;19;1711;-74
2022/10/05 07:38:57;;;;;;;;;;;;;;;22.75;59.53;102176.06;7411228;19;1627;-75
2022/10/05 07:41:34;;;;;;;;;;;;;;;22.77;59.60;102171.41;7408821;19;1655;-77
2022/10/05 07:44:10;;;;;;;;;;;;;;;22.78;59.53;102173.09;7407795;19;1627;-75
2022/10/05 07:46:42;;;;;;;;;;;;;;;22.76;59.71;102169.69;7407290;19;1846;-74
2022/10/05 07:49:17;;;;;;;;;;;;;;;22.76;59.26;102191.25;7408073;19;1638;-75
2022/10/05 07:51:47;;;;;;;;;;;;;;;22.71;59.55;102185.41;7409369;19;1414;-74
2022/10/05 07:54:20;;;;;;;;;;;;;;;22.77;59.01;102195.69;7407916;19;1398;-74
2022/10/05 07:56:55;;;;;;;;;;;;;;;22.80;59.29;102181.94;7410303;19;948;-77
2022/10/05 07:59:26;;;;;;;;;;;;;;;22.81;59.16;102181.81;7406907;19;1788;-74
2022/10/05 08:02:01;;;;;;;;;;;;;;;22.79;59.30;102166.75;7405792;19;1448;-76
2022/10/05 08:04:33;;;;;;;;;;;;;;;22.79;58.82;102169.44;7408358;19;1396;-75
2022/10/05 08:07:03;;;;;;;;;;;;;;;22.80;58.85;102172.03;7407325;19;1865;-74
2022/10/05 08:09:35;;;;;;;;;;;;;;;22.81;58.60;102165.63;7409843;19;1463;-78
2022/10/05 08:12:13;;;;;;;;;;;;;;;22.84;58.68;102180.72;7408694;19;1811;-77
2022/10/05 08:14:46;;;;;;;;;;;;;;;22.82;58.62;102177.28;7407521;19;1446;-77
2022/10/05 08:17:27;;;;;;;;;;;;;;;22.80;58.79;102176.53;7409706;19;1548;-75
2022/10/05 08:20:00;;;;;;;;;;;;;;;22.80;58.90;102180.13;7406396;19;1631;-75
2022/10/05 08:22:31;;;;;;;;;;;;;;;22.87;58.34;102185.00;7408405;19;1611;-74
2022/10/05 08:25:01;;;;;;;;;;;;;;;22.86;58.66;102189.53;7407210;19;1547;-78
2022/10/05 08:27:37;;;;;;;;;;;;;;;22.83;58.69;102195.19;7408741;19;1864;-78
2022/10/05 08:30:07;;;;;;;;;;;;;;;22.84;58.87;102202.31;7407594;19;1312;-78
2022/10/05 08:32:40;;;;;;;;;;;;;;;22.79;58.92;102199.09;7410147;19;1508;-78
2022/10/05 08:35:15;;;;;;;;;;;;;;;22.74;59.02;102193.22;7409412;19;1702;-78
2022/10/05 08:37:45;;;;;;;;;;;;;;;22.76;58.92;102191.25;7409011;19;1638;-78
2022/10/05 08:40:27;;;;;;;;;;;;;;;22.73;58.90;102200.47;7407363;19;1659;-78
2022/10/05 08:43:08;;;;;;;;;;;;;;;22.74;58.76;102196.81;7406883;19;1642;-78
2022/10/05 08:46:01;;;;;;;;;;;;;;;22.75;58.48;102194.94;7407025;19;1508;-78
2022/10/05 08:48:43;;;;;;;;;;;;;;;22.74;58.57;102182.44;7403308;19;1850;-78
2022/10/05 08:51:35;;;;;;;;;;;;;;;22.74;58.35;102195.91;7406096;19;1607;-77
2022/10/05 08:54:14;;;;;;;;;;;;;;;22.76;58.23;102199.34;7405366;19;1675;-78
2022/10/05 08:56:44;;;;;;;;;;;;;;;22.74;58.27;102195.91;7406658;19;1504;-78
2022/10/05 08:59:28;;;;;;;;;;;;;;;22.70;58.16;102198.03;7407075;19;1772;-78
2022/10/05 09:02:14;;;;;;;;;;;;;;;22.74;58.00;102186.00;7405231;19;1769;-78
2022/10/05 09:04:50;;;;;;;;;;;;;;;22.75;57.72;102208.44;7406535;19;1626;-78
2022/10/05 09:07:33;;;;;;;;;;;;;;;22.73;57.80;102205.00;7403281;19;1855;-78
2022/10/05 09:10:16;;;;;;;;;;;;;;;22.76;57.85;102202.03;7405883;19;1639;-77
2022/10/05 09:13:01;;;;;;;;;;;;;;;22.76;57.53;102202.03;7408590;19;926;-78
2022/10/05 09:15:47;;;;;;;;;;;;;;;22.72;57.69;102206.84;7406650;19;1618;-78
2022/10/05 09:18:30;;;;;;;;;;;;;;;22.71;57.84;102207.81;7408351;19;1095;-78
2022/10/05 09:21:01;;;;;;;;;;;;;;;22.74;57.66;102222.88;7406806;19;1647;-78
2022/10/05 09:23:37;;;;;;;;;;;;;;;22.70;57.78;102199.84;7408079;19;1611;-78
2022/10/05 09:26:09;;;;;;;;;;;;;;;22.66;57.56;102204.66;7406924;19;1647;-78
2022/10/05 09:28:44;;;;;;;;;;;;;;;22.68;57.75;102202.69;7405444;19;1856;-78
2022/10/05 09:31:21;;;;;;;;;;;;;;;22.75;57.34;102203.03;7406050;19;1363;-78
2022/10/05 09:34:05;;;;;;;;;;;;;;;22.73;57.47;102205.84;7407233;19;1568;-78
2022/10/05 09:36:54;;;;;;;;;;;;;;;22.73;57.37;102211.25;7406036;19;1564;-78
2022/10/05 09:39:40;;;;;;;;;;;;;;;22.70;57.14;102199.84;7406819;19;1564;-78
2022/10/05 09:42:26;;;;;;;;;;;;;;;22.70;57.00;102213.34;7406437;19;1671;-78
2022/10/05 09:45:09;;;;;;;;;;;;;;;22.66;56.87;102199.28;7406899;19;1545;-78
2022/10/05 09:47:51;;;;;;;;;;;;;;;22.70;56.78;102199.84;7404753;19;1882;-78
2022/10/05 09:50:31;;;;;;;;;;;;;;;22.70;56.81;102202.53;7405296;19;1581;-78
2022/10/05 09:53:11;;;;;;;;;;;;;;;22.76;56.63;102199.34;7405615;19;1654;-78
2022/10/05 09:55:56;;;;;;;;;;;;;;;22.70;56.50;102197.16;7404955;19;1765;-78
2022/10/05 09:58:38;;;;;;;;;;;;;;;22.70;56.20;102194.47;7405192;19;1642;-78
2022/10/05 10:01:23;;;;;;;;;;;;;;;22.70;55.73;102191.75;7405199;19;1563;-78
2022/10/05 10:04:08;;;;;;;;;;;;;;;22.68;55.95;102191.03;7406108;19;1646;-78
2022/10/05 10:07:01;;;;;;;;;;;;;;;22.68;55.91;102181.13;7405293;19;1636;-78
2022/10/05 10:09:32;;;;;;;;;;;;;;;22.73;55.95;102194.22;7405152;19;1544;-78
2022/10/05 10:12:22;;;;;;;;;;;;;;;22.67;55.75;102183.94;7404132;19;1470;-77
2022/10/05 10:15:22;;;;;;;;;;;;;;;22.75;55.43;102184.16;7403577;19;1205;-78
2022/10/05 10:18:09;;;;;;;;;;;;;;;22.78;55.21;102186.59;7401751;19;1521;-77
2022/10/05 10:20:52;;;;;;;;;;;;;;;22.74;54.58;102179.75;7404321;19;1565;-78
2022/10/05 10:23:37;;;;;;;;;;;;;;;22.67;54.74;102179.41;7404667;19;1691;-77
2022/10/05 10:26:23;;;;;;;;;;;;;;;22.69;54.31;102176.56;7403394;19;1255;-72
2022/10/05 10:29:00;;;;;;;;;;;;;;;22.76;54.54;102169.69;7401286;19;1845;-69
2022/10/05 10:31:43;;;;;;;;;;;;;;;22.84;54.59;102169.94;7398618;19;1420;-78
2022/10/05 10:34:23;;;;;;;;;;;;;;;22.79;54.88;102169.44;7400323;19;1410;-76
2022/10/05 10:37:01;;;;;;;;;;;;;;;22.85;54.96;102166.22;7399492;19;1345;-69
2022/10/05 10:39:37;;;;;;;;;;;;;;;22.90;55.31;102163.16;7404657;19;1316;-69
2022/10/05 10:42:17;;;;;;;;;;;;;;;22.87;55.38;102168.81;7401001;19;1718;-71
2022/10/05 10:45:06;;;;;;;;;;;;;;;22.86;55.38;102157.19;7401026;19;1363;-71
2022/10/05 10:47:53;;;;;;;;;;;;;;;22.85;55.07;102141.97;7399628;19;1845;-69
2022/10/05 10:50:36;;;;;;;;;;;;;;;22.87;55.40;102141.84;7394800;19;1322;-73
2022/10/05 10:53:20;;;;;;;;;;;;;;;22.85;55.38;102128.47;7394250;19;1386;-73
2022/10/05 10:55:52;;;;;;;;;;;;;;;22.88;54.81;102139.03;7397732;19;1376;-72
2022/10/05 10:58:35;;;;;;;;;;;;;;;22.88;55.20;102135.44;7400744;19;1388;-72
2022/10/05 11:01:11;;;;;;;;;;;;;;;22.87;54.46;102137.28;7400974;19;1454;-72
2022/10/05 11:04:00;;;;;;;;;;;;;;;22.89;54.50;102123.69;7403547;19;1583;-74
2022/10/05 11:06:36;;;;;;;;;;;;;;;22.89;54.59;102124.53;7401139;19;1503;-72
2022/10/05 11:09:31;;;;;;;;;;;;;;;22.91;54.50;102119.03;7399565;19;1850;-71
2022/10/05 11:12:14;;;;;;;;;;;;;;;22.92;54.19;102121.59;7397565;19;1528;-72
2022/10/05 11:14:57;;;;;;;;;;;;;;;22.93;54.03;102112.50;7398744;19;1450;-71
2022/10/05 11:17:46;;;;;;;;;;;;;;;22.91;53.97;102105.53;7396691;19;1508;-70
2022/10/05 11:20:32;;;;;;;;;;;;;;;22.93;53.96;102099.00;7399955;19;1596;-71
2022/10/05 11:23:14;;;;;;;;;;;;;;;22.91;54.24;102094.75;7397064;19;1473;-71
2022/10/05 11:25:56;;;;;;;;;;;;;;;22.91;54.06;102097.44;7400921;19;1422;-72
2022/10/05 11:28:36;;;;;;;;;;;;;;;22.91;53.98;102106.38;7400062;19;1852;-72
2022/10/05 11:31:14;;;;;;;;;;;;;;;22.92;54.06;102097.31;7408550;19;1384;-74
2022/10/05 11:34:01;;;;;;;;;;;;;;;22.88;54.50;102095.00;7409351;19;1354;-74
2022/10/05 11:36:41;;;;;;;;;;;;;;;22.88;53.97;102098.56;7407055;19;1544;-73
2022/10/05 11:39:23;;;;;;;;;;;;;;;22.87;54.36;102083.34;7405255;19;1461;-75
2022/10/05 11:42:15;;;;;;;;;;;;;;;22.88;54.19;102093.16;7409218;19;1288;-72
2022/10/05 11:45:01;;;;;;;;;;;;;;;22.93;54.30;102079.28;7404644;19;1464;-75
2022/10/05 11:47:31;;;;;;;;;;;;;;;22.95;54.22;102088.94;7406553;19;1845;-74
2022/10/05 11:50:05;;;;;;;;;;;;;;;22.95;54.62;102106.97;7407408;19;1347;-72
2022/10/05 11:52:39;;;;;;;;;;;;;;;23.00;54.34;102100.22;7407666;19;1667;-77
2022/10/05 11:55:25;;;;;;;;;;;;;;;23.04;54.55;102095.47;7406442;19;1694;-72
2022/10/05 11:57:57;;;;;;;;;;;;;;;23.05;53.16;102112.50;7409048;19;1087;-72
2022/10/05 12:00:26;;;;;;;;;;;;;;;23.06;53.92;102111.50;7408969;19;1568;-73
2022/10/05 12:03:05;;;;;;;;;;;;;;;23.03;54.01;102118.84;7403870;19;1425;-71
2022/10/05 12:05:39;;;;;;;;;;;;;;;23.01;54.35;102111.84;7407126;19;1476;-72
2022/10/05 12:08:13;;;;;;;;;;;;;;;22.98;54.04;102112.13;7406640;19;1838;-72
2022/10/05 12:10:46;;;;;;;;;;;;;;;23.04;53.93;102117.03;7402483;19;1254;-72
2022/10/05 12:13:26;;;;;;;;;;;;;;;23.00;54.03;102105.63;7407689;19;1477;-75
2022/10/05 12:15:56;;;;;;;;;;;;;;;23.03;54.17;102107.22;7407313;19;1357;-72
2022/10/05 12:18:42;;;;;;;;;;;;;;;22.99;54.37;102103.03;7404302;19;1370;-74
2022/10/05 12:21:16;;;;;;;;;;;;;;;22.99;54.11;102101.19;7388545;19;1468;-75
2022/10/05 12:23:48;;;;;;;;;;;;;;;23.02;54.48;102082.09;7401863;19;1436;-71
2022/10/05 12:26:21;;;;;;;;;;;;;;;23.06;55.48;102106.09;7404631;19;1359;-62
2022/10/05 12:28:54;;;;;;;;;;;;;;;22.94;54.07;102065.66;7393878;19;1870;-70
2022/10/05 12:31:28;;;;;;;;;;;;;;;22.97;54.67;102078.03;7397416;19;1369;-70
2022/10/05 12:34:03;;;;;;;;;;;;;;;23.03;55.15;102080.25;7401217;19;1178;-73
2022/10/05 12:36:35;;;;;;;;;;;;;;;23.03;54.52;102083.78;7402817;19;1423;-69
2022/10/05 12:39:09;;;;;;;;;;;;;;;23.02;54.21;102075.84;7404960;19;1403;-72
2022/10/05 12:41:44;;;;;;;;;;;;;;;23.02;53.82;102068.59;7404369;19;1656;-73
2022/10/05 12:44:18;;;;;;;;;;;;;;;22.99;53.52;102058.03;7401189;19;1422;-76
2022/10/05 12:46:51;;;;;;;;;;;;;;;23.03;53.51;102051.41;7406168;19;1398;-71
2022/10/05 12:49:34;;;;;;;;;;;;;;;23.05;53.55;102056.69;7399349;19;1861;-72
2022/10/05 12:52:06;;;;;;;;;;;;;;;23.04;53.17;102068.47;7403247;19;1428;-72
2022/10/05 12:54:40;;;;;;;;;;;;;;;23.09;53.05;102054.59;7403510;19;1343;-67
2022/10/05 12:57:14;;;;;;;;;;;;;;;23.04;53.15;102068.47;7395233;19;1366;-66
2022/10/05 12:59:48;;;;;;;;;;;;;;;22.90;49.75;102072.31;7399486;19;1211;-66
2022/10/05 13:02:25;;;;;;;;;;;;;;;22.89;52.63;102070.59;7399781;19;1445;-64
2022/10/05 13:04:58;;;;;;;;;;;;;;;22.94;52.38;102089.94;7401368;19;1247;-63
2022/10/05 13:07:35;;;;;;;;;;;;;;;22.79;51.70;102081.28;7402190;19;1374;-65
2022/10/05 13:10:10;;;;;;;;;;;;;;;22.87;52.07;102082.50;7402169;19;1857;-65
2022/10/05 13:12:46;;;;;;;;;;;;;;;22.80;51.89;102092.94;7401040;19;1934;-67
2022/10/05 13:15:22;;;;;;;;;;;;;;;22.80;47.90;102082.13;7406067;19;1410;-67
2022/10/05 13:17:56;;;;;;;;;;;;;;;22.92;48.93;102069.47;7411753;19;1643;-67
2022/10/05 13:20:30;;;;;;;;;;;;;;;22.83;49.74;102090.00;7410479;19;1377;-69
2022/10/05 13:23:03;;;;;;;;;;;;;;;22.66;49.29;102087.84;7410623;19;1595;-66
2022/10/05 13:25:34;;;;;;;;;;;;;;;22.63;48.67;102081.72;7406223;19;1235;-68
2022/10/05 13:28:16;;;;;;;;;;;;;;;22.71;48.73;102082.94;7407450;19;1878;-69
2022/10/05 13:30:53;;;;;;;;;;;;;;;22.76;49.65;102075.28;7408299;19;1484;-64
2022/10/05 13:33:26;;;;;;;;;;;;;;;22.72;48.68;102076.53;7411315;19;1210;-66
2022/10/05 13:36:01;;;;;;;;;;;;;;;22.68;48.25;102069.69;7401272;19;1412;-66